createdAt,value
2019-05-07T00:00:32.783Z,75.25
2019-05-07T00:02:43.425Z,75.01
2019-05-07T00:04:54.303Z,74.65
2019-05-07T00:07:06.383Z,74.12
2019-05-07T00:09:17.341Z,74.64
2019-05-07T00:11:28.226Z,74.92
2019-05-07T00:13:39.056Z,74.96
2019-05-07T00:15:49.921Z,74.84
2019-05-07T00:18:02.990Z,74.96
2019-05-07T00:20:14.435Z,75.24
2019-05-07T00:22:27.231Z,75.36
2019-05-07T00:24:38.161Z,75.82
2019-05-07T00:26:49.117Z,76.09
2019-05-07T00:29:02.163Z,75.80
2019-05-07T00:31:12.826Z,75.70
2019-05-07T00:33:23.787Z,75.19
2019-05-07T00:35:45.691Z,75.26
2019-05-07T00:37:58.473Z,76.21
2019-05-07T00:40:22.413Z,76.49
2019-05-07T00:42:35.104Z,76.31
2019-05-07T00:45:14.275Z,76.40
2019-05-07T00:47:15.827Z,76.52
2019-05-07T00:49:27.853Z,76.33
2019-05-07T00:51:38.832Z,76.13
2019-05-07T00:53:51.919Z,76.32
2019-05-07T00:56:02.574Z,76.28
2019-05-07T00:58:13.529Z,75.78
2019-05-07T01:00:24.460Z,76.14
2019-05-07T01:02:35.325Z,76.40
2019-05-07T01:04:46.154Z,76.43
2019-05-07T01:06:56.997Z,76.70
2019-05-07T01:09:07.963Z,76.31
2019-05-07T01:11:18.891Z,76.73
2019-05-07T01:13:32.211Z,77.04
2019-05-07T01:15:43.120Z,77.06
2019-05-07T01:17:54.048Z,77.15
2019-05-07T01:20:05.388Z,77.14
2019-05-07T01:22:16.319Z,76.98
2019-05-07T01:24:27.275Z,77.22
2019-05-07T01:26:38.104Z,77.61
2019-05-07T01:28:58.149Z,77.50
2019-05-07T01:31:09.002Z,77.65
2019-05-07T01:33:24.854Z,77.69
2019-05-07T01:35:42.252Z,77.70
2019-05-07T01:37:52.849Z,77.49
2019-05-07T01:40:03.921Z,77.51
2019-05-07T01:42:14.753Z,77.22
2019-05-07T01:44:25.608Z,77.48
2019-05-07T01:46:36.459Z,77.78
2019-05-07T01:48:47.294Z,78.20
2019-05-07T01:50:58.443Z,78.16
2019-05-07T01:53:09.291Z,78.29
2019-05-07T01:55:22.403Z,78.59
2019-05-07T01:57:32.929Z,78.37
2019-05-07T01:59:43.813Z,78.36
2019-05-07T02:01:56.550Z,78.63
2019-05-07T02:04:15.399Z,78.67
2019-05-07T02:06:32.782Z,78.76
2019-05-07T02:08:57.777Z,78.81
2019-05-07T02:11:13.358Z,79.29
2019-05-07T02:13:24.199Z,79.45
2019-05-07T02:15:35.664Z,79.46
2019-05-07T02:17:46.498Z,79.55
2019-05-07T02:19:58.226Z,79.81
2019-05-07T02:22:09.083Z,80.13
2019-05-07T02:24:21.913Z,80.19
2019-05-07T02:26:32.865Z,79.89
2019-05-07T02:28:43.736Z,79.60
2019-05-07T02:30:54.567Z,79.41
2019-05-07T02:33:05.412Z,79.17
2019-05-07T02:35:16.370Z,79.09
2019-05-07T02:37:35.733Z,79.16
2019-05-07T02:39:44.454Z,79.20
2019-05-07T02:41:55.551Z,79.52
2019-05-07T02:44:06.425Z,79.49
2019-05-07T02:46:31.027Z,79.55
2019-05-07T02:48:43.085Z,79.65
2019-05-07T02:51:04.131Z,80.10
2019-05-07T02:53:25.515Z,80.61
2019-05-07T02:55:44.219Z,80.53
2019-05-07T02:57:55.171Z,80.47
2019-05-07T03:00:06.118Z,79.84
2019-05-07T03:02:16.971Z,79.71
2019-05-07T03:04:27.814Z,79.77
2019-05-07T03:06:38.755Z,79.74
2019-05-07T03:08:49.688Z,79.60
2019-05-07T03:11:03.326Z,79.46
2019-05-07T03:13:14.254Z,79.33
2019-05-07T03:15:25.224Z,79.21
2019-05-07T03:17:36.488Z,79.06
2019-05-07T03:19:49.243Z,78.47
2019-05-07T03:22:00.095Z,78.39
2019-05-07T03:24:14.036Z,78.81
2019-05-07T03:26:27.018Z,79.24
2019-05-07T03:28:42.294Z,79.33
2019-05-07T03:31:09.499Z,79.36
2019-05-07T03:33:36.154Z,79.53
2019-05-07T03:35:47.202Z,79.77
2019-05-07T03:37:58.549Z,80.16
2019-05-07T03:40:09.900Z,80.75
2019-05-07T03:42:23.431Z,80.59
2019-05-07T03:44:44.663Z,80.63
2019-05-07T03:47:02.338Z,80.73
2019-05-07T03:49:13.583Z,80.85
2019-05-07T03:51:23.889Z,81.12
2019-05-07T03:53:34.829Z,81.39
2019-05-07T03:55:45.659Z,81.82
2019-05-07T03:57:56.522Z,82.00
2019-05-07T04:00:08.381Z,81.91
2019-05-07T04:02:19.230Z,81.73
2019-05-07T04:04:33.017Z,81.50
2019-05-07T04:06:43.581Z,81.46
2019-05-07T04:08:54.589Z,81.36
2019-05-07T04:11:05.516Z,81.37
2019-05-07T04:13:16.376Z,81.62
2019-05-07T04:15:27.308Z,81.61
2019-05-07T04:17:38.254Z,81.95
2019-05-07T04:19:49.106Z,82.39
2019-05-07T04:21:59.942Z,82.50
2019-05-07T04:24:29.492Z,82.41
2019-05-07T04:26:53.657Z,82.08
2019-05-07T04:29:06.511Z,81.31
2019-05-07T04:31:17.522Z,80.70
2019-05-07T04:33:33.240Z,80.86
2019-05-07T04:35:48.069Z,81.08
2019-05-07T04:38:02.041Z,80.94
2019-05-07T04:40:13.498Z,81.06
2019-05-07T04:42:24.882Z,80.99
2019-05-07T04:44:38.996Z,81.05
2019-05-07T04:46:53.116Z,81.25
2019-05-07T04:49:03.724Z,81.22
2019-05-07T04:51:16.922Z,80.93
2019-05-07T04:53:27.860Z,80.53
2019-05-07T04:55:38.724Z,80.18
2019-05-07T04:57:49.575Z,79.86
2019-05-07T05:00:03.262Z,79.64
2019-05-07T05:02:15.116Z,79.37
2019-05-07T05:04:30.729Z,79.44
2019-05-07T05:06:38.714Z,79.26
2019-05-07T05:08:56.244Z,78.44
2019-05-07T05:11:06.127Z,78.13
2019-05-07T05:13:16.965Z,77.66
2019-05-07T05:15:28.034Z,77.63
2019-05-07T05:17:49.722Z,76.98
2019-05-07T05:19:52.520Z,76.36
2019-05-07T05:22:17.007Z,75.83
2019-05-07T05:24:38.869Z,74.75
2019-05-07T05:26:49.721Z,73.79
2019-05-07T05:29:02.428Z,72.62
2019-05-07T05:31:13.337Z,71.62
2019-05-07T05:33:24.194Z,70.43
2019-05-07T05:35:35.250Z,69.30
2019-05-07T05:37:46.101Z,67.50
2019-05-07T05:40:06.315Z,66.21
2019-05-07T05:42:11.898Z,64.73
2019-05-07T05:44:33.621Z,63.05
2019-05-07T05:46:44.495Z,62.59
2019-05-07T05:48:55.327Z,61.08
2019-05-07T05:51:28.765Z,59.76
2019-05-07T05:53:44.462Z,59.01
2019-05-07T05:55:57.219Z,58.85
2019-05-07T05:58:12.108Z,58.85
2019-05-07T06:00:42.301Z,58.44
2019-05-07T06:03:02.560Z,58.42
2019-05-07T06:05:34.250Z,58.63
2019-05-07T06:07:56.123Z,57.75
2019-05-07T06:10:14.883Z,55.90
2019-05-07T06:12:32.612Z,56.23
2019-05-07T06:14:45.123Z,55.51
2019-05-07T06:17:14.753Z,55.60
2019-05-07T06:19:27.504Z,55.58
2019-05-07T06:21:57.427Z,53.92
2019-05-07T06:24:12.890Z,53.12
2019-05-07T06:26:23.722Z,52.62
2019-05-07T06:28:34.581Z,52.10
2019-05-07T06:30:45.412Z,50.39
2019-05-07T06:32:56.373Z,51.27
2019-05-07T06:35:07.306Z,50.64
2019-05-07T06:37:18.158Z,50.17
2019-05-07T06:39:46.004Z,50.03
2019-05-07T06:42:15.623Z,50.55
2019-05-07T06:44:26.466Z,50.19
2019-05-07T06:46:38.815Z,49.77
2019-05-07T06:48:49.759Z,50.25
2019-05-07T06:51:02.889Z,52.22
2019-05-07T06:53:13.501Z,51.61
2019-05-07T06:55:24.334Z,52.08
2019-05-07T06:57:35.972Z,52.58
2019-05-07T06:59:48.734Z,53.10
2019-05-07T07:02:18.613Z,54.04
2019-05-07T07:04:33.133Z,53.99
2019-05-07T07:06:49.015Z,53.88
2019-05-07T07:09:18.574Z,54.18
2019-05-07T07:11:34.151Z,53.57
2019-05-07T07:13:45.125Z,51.98
2019-05-07T07:15:56.023Z,52.74
2019-05-07T07:18:06.828Z,53.54
2019-05-07T07:20:18.010Z,52.38
2019-05-07T07:22:28.947Z,52.95
2019-05-07T07:24:42.284Z,51.27
2019-05-07T07:26:53.023Z,50.40
2019-05-07T07:29:04.611Z,49.83
2019-05-07T07:31:26.091Z,49.56
2019-05-07T07:33:37.851Z,48.97
2019-05-07T07:35:48.793Z,48.14
2019-05-07T07:38:02.399Z,49.09
2019-05-07T07:40:15.918Z,48.78
2019-05-07T07:42:26.860Z,49.50
2019-05-07T07:44:37.727Z,48.65
2019-05-07T07:46:48.669Z,48.67
2019-05-07T07:49:07.883Z,48.41
2019-05-07T07:51:13.836Z,48.21
2019-05-07T07:53:24.955Z,47.83
2019-05-07T07:55:37.731Z,47.50
2019-05-07T07:58:08.752Z,46.30
2019-05-07T08:00:29.990Z,45.21
2019-05-07T08:02:42.787Z,45.54
2019-05-07T08:04:53.655Z,44.33
2019-05-07T08:07:04.499Z,44.74
2019-05-07T08:09:15.342Z,44.81
2019-05-07T08:11:26.295Z,43.63
2019-05-07T08:13:37.157Z,45.87
2019-05-07T08:15:48.152Z,43.31
2019-05-07T08:17:59.383Z,43.15
2019-05-07T08:20:12.804Z,42.58
2019-05-07T08:22:24.210Z,41.84
2019-05-07T08:24:35.157Z,41.37
2019-05-07T08:26:46.334Z,40.11
2019-05-07T08:28:57.167Z,40.10
2019-05-07T08:31:28.007Z,40.89
2019-05-07T08:33:43.927Z,37.77
2019-05-07T08:36:07.630Z,39.29
2019-05-07T08:38:18.473Z,38.79
2019-05-07T08:40:29.331Z,38.19
2019-05-07T08:42:41.896Z,38.97
2019-05-07T08:45:12.020Z,37.23
2019-05-07T08:47:27.676Z,37.82
2019-05-07T08:49:43.203Z,37.55
2019-05-07T08:51:59.345Z,35.76
2019-05-07T08:54:12.219Z,36.33
2019-05-07T08:56:23.184Z,35.31
2019-05-07T08:58:34.225Z,34.34
2019-05-07T09:00:45.199Z,36.77
2019-05-07T09:02:56.062Z,33.54
2019-05-07T09:05:09.209Z,33.54
2019-05-07T09:07:21.901Z,35.40
2019-05-07T09:09:32.913Z,36.11
2019-05-07T09:11:43.819Z,35.61
2019-05-07T09:13:54.758Z,35.27
2019-05-07T09:16:05.611Z,33.16
2019-05-07T09:18:16.491Z,32.72
2019-05-07T09:20:27.327Z,33.08
2019-05-07T09:22:38.204Z,33.32
2019-05-07T09:24:49.045Z,33.29
2019-05-07T09:27:02.754Z,33.13
2019-05-07T09:29:32.503Z,32.21
2019-05-07T09:31:48.286Z,32.75
2019-05-07T09:33:59.220Z,33.88
2019-05-07T09:36:12.237Z,33.14
2019-05-07T09:38:23.069Z,34.54
2019-05-07T09:40:33.910Z,35.01
2019-05-07T09:42:44.960Z,36.60
2019-05-07T09:44:55.797Z,32.32
2019-05-07T09:47:07.012Z,31.57
2019-05-07T09:49:17.937Z,31.98
2019-05-07T09:51:28.767Z,33.75
2019-05-07T09:53:39.652Z,30.35
2019-05-07T09:55:51.624Z,31.98
2019-05-07T09:58:02.835Z,31.92
2019-05-07T10:00:14.579Z,31.60
2019-05-07T10:02:25.524Z,35.09
2019-05-07T10:04:36.502Z,34.56
2019-05-07T10:06:48.053Z,34.93
2019-05-07T10:08:59.091Z,34.80
2019-05-07T10:11:12.228Z,33.63
2019-05-07T10:13:25.010Z,32.95
2019-05-07T10:15:36.071Z,34.76
2019-05-07T10:18:05.835Z,33.08
2019-05-07T10:20:22.186Z,33.87
2019-05-07T10:22:32.158Z,32.50
2019-05-07T10:24:43.331Z,34.16
2019-05-07T10:26:54.280Z,34.78
2019-05-07T10:29:05.261Z,34.21
2019-05-07T10:31:16.087Z,33.80
2019-05-07T10:33:27.088Z,34.92
2019-05-07T10:35:38.047Z,35.55
2019-05-07T10:37:49.014Z,36.50
2019-05-07T10:39:59.985Z,36.31
2019-05-07T10:42:12.371Z,36.18
2019-05-07T10:44:25.409Z,35.34
2019-05-07T10:46:54.732Z,34.87
2019-05-07T10:49:12.185Z,35.62
2019-05-07T10:51:23.607Z,34.78
2019-05-07T10:53:34.554Z,33.44
2019-05-07T10:55:45.747Z,43.47
2019-05-07T10:57:56.764Z,39.36
2019-05-07T11:00:09.672Z,34.60
2019-05-07T11:02:22.516Z,32.75
2019-05-07T11:04:42.615Z,34.65
2019-05-07T11:06:46.240Z,34.69
2019-05-07T11:08:57.099Z,34.13
2019-05-07T11:11:08.155Z,35.84
2019-05-07T11:13:19.005Z,35.89
2019-05-07T11:15:32.415Z,34.81
2019-05-07T11:17:56.777Z,36.05
2019-05-07T11:20:09.529Z,36.80
2019-05-07T11:22:22.139Z,35.05
2019-05-07T11:24:33.236Z,34.65
2019-05-07T11:26:44.189Z,34.43
2019-05-07T11:28:55.175Z,34.75
2019-05-07T11:31:06.337Z,35.60
2019-05-07T11:33:19.115Z,36.57
2019-05-07T11:35:31.897Z,35.61
2019-05-07T11:37:44.362Z,34.11
2019-05-07T11:39:55.424Z,38.41
2019-05-07T11:42:10.104Z,34.09
2019-05-07T11:44:23.093Z,35.75
2019-05-07T11:46:44.402Z,35.95
2019-05-07T11:48:56.798Z,32.23
2019-05-07T11:51:20.108Z,33.41
2019-05-07T11:53:35.876Z,33.26
2019-05-07T11:55:46.785Z,29.93
2019-05-07T11:57:57.741Z,32.74
2019-05-07T12:00:23.634Z,30.97
2019-05-07T12:02:34.648Z,29.19
2019-05-07T12:04:45.505Z,34.25
2019-05-07T12:06:56.460Z,29.12
2019-05-07T12:09:07.540Z,33.54
2019-05-07T12:11:18.512Z,31.73
2019-05-07T12:13:29.388Z,33.10
2019-05-07T12:15:40.363Z,33.81
2019-05-07T12:17:52.118Z,31.78
2019-05-07T12:20:04.183Z,33.03
2019-05-07T12:22:17.055Z,34.20
2019-05-07T12:24:27.937Z,33.89
2019-05-07T12:26:41.740Z,34.48
2019-05-07T12:28:52.835Z,33.34
2019-05-07T12:31:22.455Z,33.55
2019-05-07T12:33:44.547Z,34.15
2019-05-07T12:35:55.505Z,33.63
2019-05-07T12:38:06.357Z,34.89
2019-05-07T12:40:17.457Z,33.64
2019-05-07T12:42:28.298Z,32.59
2019-05-07T12:44:39.352Z,32.88
2019-05-07T12:46:52.310Z,31.83
2019-05-07T12:49:03.802Z,34.27
2019-05-07T12:51:14.742Z,31.97
2019-05-07T12:53:39.554Z,33.66
2019-05-07T12:55:52.362Z,34.42
2019-05-07T12:58:03.417Z,33.88
2019-05-07T13:00:34.385Z,33.08
2019-05-07T13:02:46.884Z,32.42
2019-05-07T13:04:58.248Z,32.57
2019-05-07T13:07:23.239Z,33.42
2019-05-07T13:09:34.223Z,32.93
2019-05-07T13:11:45.170Z,33.00
2019-05-07T13:13:56.059Z,33.90
2019-05-07T13:16:06.915Z,32.77
2019-05-07T13:18:17.770Z,33.49
2019-05-07T13:20:28.654Z,33.95
2019-05-07T13:22:39.579Z,32.95
2019-05-07T13:24:52.742Z,31.93
2019-05-07T13:27:03.510Z,31.68
2019-05-07T13:29:14.339Z,32.18
2019-05-07T13:31:27.670Z,32.85
2019-05-07T13:33:38.737Z,33.20
2019-05-07T13:35:52.073Z,33.18
2019-05-07T13:38:05.043Z,32.96
2019-05-07T13:40:31.516Z,32.43
2019-05-07T13:42:45.121Z,32.56
2019-05-07T13:44:58.694Z,32.64
2019-05-07T13:47:26.276Z,31.83
2019-05-07T13:49:37.249Z,33.97
2019-05-07T13:52:02.539Z,35.23
2019-05-07T13:54:02.097Z,34.16
2019-05-07T13:56:13.160Z,34.63
2019-05-07T13:58:24.094Z,34.06
2019-05-07T14:00:37.063Z,34.14
2019-05-07T14:02:48.038Z,33.88
2019-05-07T14:04:59.070Z,33.43
2019-05-07T14:07:12.506Z,33.04
2019-05-07T14:09:24.552Z,33.50
2019-05-07T14:11:35.548Z,33.36
2019-05-07T14:13:46.489Z,33.11
2019-05-07T14:16:12.060Z,32.00
2019-05-07T14:18:25.677Z,32.65
2019-05-07T14:20:35.954Z,32.41
2019-05-07T14:22:46.946Z,32.48
2019-05-07T14:24:57.777Z,33.56
2019-05-07T14:27:08.639Z,32.97
2019-05-07T14:29:19.586Z,33.25
2019-05-07T14:31:33.500Z,33.33
2019-05-07T14:33:45.126Z,33.74
2019-05-07T14:36:02.576Z,34.56
2019-05-07T14:38:15.451Z,33.44
2019-05-07T14:40:26.407Z,33.42
2019-05-07T14:42:39.178Z,33.26
2019-05-07T14:44:50.162Z,33.88
2019-05-07T14:47:02.378Z,35.57
2019-05-07T14:49:13.487Z,34.69
2019-05-07T14:51:24.479Z,33.86
2019-05-07T14:53:35.334Z,32.73
2019-05-07T14:55:46.305Z,34.72
2019-05-07T14:57:57.348Z,34.41
2019-05-07T15:00:09.013Z,32.24
2019-05-07T15:02:20.067Z,32.83
2019-05-07T15:04:31.226Z,33.25
2019-05-07T15:06:42.270Z,32.93
2019-05-07T15:08:53.254Z,33.15
2019-05-07T15:11:04.106Z,32.86
2019-05-07T15:13:15.114Z,33.34
2019-05-07T15:15:26.169Z,35.17
2019-05-07T15:17:52.463Z,34.03
2019-05-07T15:20:03.771Z,33.90
2019-05-07T15:22:22.459Z,33.69
2019-05-07T15:24:33.418Z,34.63
2019-05-07T15:26:45.661Z,34.53
2019-05-07T15:28:58.544Z,34.67
2019-05-07T15:31:12.267Z,34.26
2019-05-07T15:33:23.307Z,36.07
2019-05-07T15:35:34.192Z,35.78
2019-05-07T15:37:45.341Z,35.77
2019-05-07T15:39:56.342Z,35.65
2019-05-07T15:42:07.292Z,35.73
2019-05-07T15:44:18.397Z,34.29
2019-05-07T15:46:29.272Z,34.81
2019-05-07T15:48:41.897Z,34.03
2019-05-07T15:50:52.907Z,33.73
2019-05-07T15:53:08.646Z,33.93
2019-05-07T15:55:19.624Z,32.72
2019-05-07T15:57:32.768Z,33.19
2019-05-07T15:59:43.260Z,33.25
2019-05-07T16:02:02.922Z,33.86
2019-05-07T16:04:22.394Z,33.46
2019-05-07T16:06:26.704Z,33.59
2019-05-07T16:08:48.989Z,35.48
2019-05-07T16:10:58.345Z,34.59
2019-05-07T16:13:13.449Z,33.49
2019-05-07T16:15:23.978Z,33.70
2019-05-07T16:17:36.854Z,34.81
2019-05-07T16:19:47.797Z,35.82
2019-05-07T16:22:03.599Z,35.91
2019-05-07T16:24:13.239Z,35.67
2019-05-07T16:26:24.155Z,36.03
2019-05-07T16:28:35.022Z,37.13
2019-05-07T16:30:45.965Z,37.35
2019-05-07T16:32:56.980Z,36.41
2019-05-07T16:35:08.135Z,34.09
2019-05-07T16:37:19.026Z,33.28
2019-05-07T16:39:29.865Z,34.05
2019-05-07T16:41:42.231Z,33.67
2019-05-07T16:43:53.411Z,34.01
2019-05-07T16:46:04.416Z,34.44
2019-05-07T16:48:15.263Z,34.47
2019-05-07T16:50:26.103Z,34.42
2019-05-07T16:52:36.984Z,34.63
2019-05-07T16:54:47.916Z,33.63
2019-05-07T16:57:17.406Z,33.47
2019-05-07T16:59:28.283Z,34.54
2019-05-07T17:01:39.173Z,34.79
2019-05-07T17:03:52.218Z,34.02
2019-05-07T17:06:03.305Z,34.40
2019-05-07T17:08:16.086Z,35.12
2019-05-07T17:10:27.064Z,34.14
2019-05-07T17:12:41.753Z,35.61
2019-05-07T17:14:52.713Z,35.50
2019-05-07T17:17:03.571Z,35.38
2019-05-07T17:19:14.948Z,44.96
2019-05-07T17:21:26.000Z,40.36
2019-05-07T17:23:43.948Z,40.63
2019-05-07T17:25:49.654Z,36.09
2019-05-07T17:28:02.782Z,33.92
2019-05-07T17:30:13.400Z,34.13
2019-05-07T17:32:24.327Z,34.60
2019-05-07T17:34:35.193Z,35.09
2019-05-07T17:36:46.059Z,35.48
2019-05-07T17:38:57.021Z,35.25
2019-05-07T17:41:13.740Z,35.55
2019-05-07T17:43:21.923Z,35.47
2019-05-07T17:45:33.149Z,35.47
2019-05-07T17:47:44.109Z,35.24
2019-05-07T17:49:55.207Z,35.35
2019-05-07T17:52:06.168Z,35.29
2019-05-07T17:54:17.147Z,35.46
2019-05-07T17:56:28.022Z,35.60
2019-05-07T17:58:38.899Z,35.60
2019-05-07T18:00:52.909Z,36.15
2019-05-07T18:03:08.609Z,36.71
2019-05-07T18:05:19.740Z,36.64
2019-05-07T18:07:30.637Z,36.84
2019-05-07T18:09:42.418Z,36.51
2019-05-07T18:11:53.619Z,36.89
2019-05-07T18:14:04.484Z,37.18
2019-05-07T18:16:17.428Z,37.11
2019-05-07T18:18:28.293Z,37.43
2019-05-07T18:20:39.588Z,37.70
2019-05-07T18:22:52.149Z,37.72
2019-05-07T18:25:04.675Z,37.90
2019-05-07T18:27:17.442Z,38.21
2019-05-07T18:29:28.293Z,38.84
2019-05-07T18:31:57.969Z,39.15
2019-05-07T18:34:09.036Z,39.28
2019-05-07T18:36:20.019Z,39.41
2019-05-07T18:38:32.840Z,39.67
2019-05-07T18:40:43.869Z,41.06
2019-05-07T18:42:54.951Z,43.81
2019-05-07T18:45:06.164Z,46.08
2019-05-07T18:47:17.039Z,46.19
2019-05-07T18:49:27.933Z,47.28
2019-05-07T18:51:39.046Z,47.31
2019-05-07T18:53:51.813Z,47.70
2019-05-07T18:56:02.805Z,48.75
2019-05-07T18:58:13.640Z,48.75
2019-05-07T19:00:32.550Z,48.75
2019-05-07T19:02:43.523Z,49.02
2019-05-07T19:04:54.478Z,49.89
2019-05-07T19:07:05.483Z,50.75
2019-05-07T19:09:16.731Z,52.00
2019-05-07T19:11:27.722Z,52.91
2019-05-07T19:13:38.682Z,53.79
2019-05-07T19:15:49.748Z,53.56
2019-05-07T19:18:02.709Z,53.90
2019-05-07T19:20:13.795Z,55.02
2019-05-07T19:22:24.791Z,54.31
2019-05-07T19:24:45.301Z,54.33
2019-05-07T19:26:48.546Z,54.12
2019-05-07T19:28:59.644Z,54.38
2019-05-07T19:31:12.518Z,54.40
2019-05-07T19:33:26.982Z,54.66
2019-05-07T19:35:36.438Z,55.23
2019-05-07T19:37:47.437Z,55.11
2019-05-07T19:39:58.535Z,55.72
2019-05-07T19:42:09.531Z,55.38
2019-05-07T19:44:20.392Z,55.72
2019-05-07T19:46:31.239Z,55.95
2019-05-07T19:48:44.053Z,56.01
2019-05-07T19:50:54.919Z,56.18
2019-05-07T19:53:05.977Z,56.60
2019-05-07T19:55:17.056Z,57.25
2019-05-07T19:57:42.614Z,57.90
2019-05-07T19:59:53.730Z,57.98
2019-05-07T20:02:06.638Z,58.21
2019-05-07T20:04:17.520Z,58.26
2019-05-07T20:06:28.503Z,58.36
2019-05-07T20:08:39.522Z,58.46
2019-05-07T20:11:08.846Z,58.71
2019-05-07T20:13:19.934Z,58.67
2019-05-07T20:15:32.013Z,59.69
2019-05-07T20:17:43.660Z,60.01
2019-05-07T20:19:54.654Z,60.68
2019-05-07T20:22:05.719Z,60.54
2019-05-07T20:24:16.626Z,60.80
2019-05-07T20:26:27.564Z,61.30
2019-05-07T20:28:38.463Z,62.08
2019-05-07T20:30:49.345Z,62.91
2019-05-07T20:33:00.309Z,63.44
2019-05-07T20:35:11.488Z,62.88
2019-05-07T20:37:22.478Z,63.17
2019-05-07T20:39:33.449Z,63.19
2019-05-07T20:41:44.377Z,62.99
2019-05-07T20:43:55.257Z,63.21
2019-05-07T20:46:06.248Z,62.94
2019-05-07T20:48:17.267Z,62.56
2019-05-07T20:50:28.147Z,63.18
2019-05-07T20:52:39.116Z,62.85
2019-05-07T20:54:57.689Z,62.43
2019-05-07T20:57:13.071Z,62.50
2019-05-07T20:59:23.468Z,62.69
2019-05-07T21:01:34.552Z,62.44
2019-05-07T21:03:45.453Z,62.48
2019-05-07T21:05:56.441Z,62.15
2019-05-07T21:08:07.379Z,61.62
2019-05-07T21:10:18.240Z,60.94
2019-05-07T21:12:29.104Z,60.68
2019-05-07T21:14:41.791Z,59.61
2019-05-07T21:16:52.786Z,58.13
2019-05-07T21:19:03.747Z,57.18
2019-05-07T21:21:14.652Z,55.99
2019-05-07T21:23:25.524Z,55.25
2019-05-07T21:25:43.454Z,53.66
2019-05-07T21:27:49.157Z,53.10
2019-05-07T21:30:02.328Z,52.63
2019-05-07T21:32:13.063Z,52.08
2019-05-07T21:34:23.903Z,52.07
2019-05-07T21:36:34.987Z,51.84
2019-05-07T21:38:45.963Z,51.27
2019-05-07T21:40:57.050Z,50.92
2019-05-07T21:43:08.034Z,50.33
2019-05-07T21:45:18.917Z,50.01
2019-05-07T21:47:29.902Z,49.39
2019-05-07T21:49:42.852Z,49.12
2019-05-07T21:51:54.612Z,48.92
2019-05-07T21:54:07.482Z,48.62
2019-05-07T21:56:20.253Z,48.65
2019-05-07T21:58:32.991Z,48.68
2019-05-07T22:00:48.726Z,48.68
2019-05-07T22:03:02.008Z,48.56
2019-05-07T22:05:13.028Z,48.62
2019-05-07T22:07:23.982Z,48.67
2019-05-07T22:09:34.925Z,49.14
2019-05-07T22:11:45.801Z,49.00
2019-05-07T22:13:56.650Z,49.39
2019-05-07T22:16:07.505Z,49.59
2019-05-07T22:18:18.407Z,49.88
2019-05-07T22:20:29.261Z,49.76
2019-05-07T22:22:42.238Z,50.11
2019-05-07T22:24:53.214Z,49.99
2019-05-07T22:27:04.359Z,50.22
2019-05-07T22:29:15.300Z,50.20
2019-05-07T22:31:31.033Z,50.13
2019-05-07T22:33:44.049Z,50.21
2019-05-07T22:35:55.012Z,50.65
2019-05-07T22:38:05.998Z,50.84
2019-05-07T22:40:16.929Z,50.95
2019-05-07T22:42:27.833Z,51.05
2019-05-07T22:44:38.816Z,51.25
2019-05-07T22:46:49.731Z,51.64
2019-05-07T22:49:02.908Z,51.53
2019-05-07T22:51:13.428Z,51.21
2019-05-07T22:53:24.309Z,51.27
2019-05-07T22:55:35.160Z,51.34
2019-05-07T22:57:52.526Z,51.86
2019-05-07T23:00:05.917Z,51.42
2019-05-07T23:02:16.773Z,51.09
2019-05-07T23:04:27.642Z,51.33
2019-05-07T23:06:38.569Z,51.56
2019-05-07T23:08:49.422Z,51.50
2019-05-07T23:11:02.738Z,50.83
2019-05-07T23:13:13.269Z,50.72
2019-05-07T23:15:24.120Z,50.29
2019-05-07T23:17:34.955Z,50.38
2019-05-07T23:19:45.816Z,50.81
2019-05-07T23:21:56.649Z,50.56
2019-05-07T23:24:07.512Z,51.17
2019-05-07T23:26:18.362Z,50.55
2019-05-07T23:28:29.241Z,50.23
2019-05-07T23:30:42.400Z,50.23
2019-05-07T23:32:52.969Z,50.08
2019-05-07T23:35:03.913Z,50.09
2019-05-07T23:37:14.759Z,49.99
2019-05-07T23:39:42.858Z,49.56
2019-05-07T23:42:13.697Z,49.66
2019-05-07T23:44:24.645Z,49.82
2019-05-07T23:46:35.502Z,49.95
2019-05-07T23:48:46.345Z,49.89
2019-05-07T23:50:57.206Z,49.98
2019-05-07T23:53:08.059Z,50.35
2019-05-07T23:55:18.928Z,50.57
2019-05-07T23:57:32.351Z,51.03
2019-05-07T23:59:42.510Z,51.29
